Aviation Digital Data Service (ADDS)

Output produced by METARs form (1212 UTC 21 November 2018)
found at http://www.aviationweather.gov/metar/data/
 
LHKE 211148Z 24004KT 3000 -DZ BR OVC006 05/04 Q1017 TEMPO 1500 DZ BR OVC004 RMK YLO
LHKE 211145Z 24004KT 3500 BR OVC006 05/05 Q1017 TEMPO 3000 -DZ BR RMK YLO
LHKE 211115Z 26004KT 4000 BR OVC007 05/04 Q1016 NOSIG RMK GRN
LHKE 211045Z 24002KT 4000 BR OVC007 05/05 Q1016 NOSIG RMK GRN
LHKE 211015Z 22002KT 5000 BR OVC007 05/05 Q1016 NOSIG RMK GRN
LHKE 210945Z 19002KT 5000 BR OVC006 05/05 Q1016 NOSIG RMK YLO
LHKE 210915Z 19002KT 5000 BR BKN006 OVC012 05/04 Q1016 BECMG 7000 NSW RMK YLO
LHKE 210845Z 00000KT 5000 BR BKN006 OVC012 05/04 Q1016 BECMG 7000 NSW RMK YLO
LHKE 210815Z 00000KT 5000 BR BKN006 OVC012 05/05 Q1016 BECMG 7000 NSW RMK YLO
LHKE 210800Z 00000KT 3000 BR BKN005 OVC012 05/05 Q1016 BECMG 5000 BR RMK YLO
LHKE 210745Z 09002KT 2500 BR BKN005 OVC012 05/05 Q1016 BECMG 5000 BR RMK YLO
LHKE 210715Z 09002KT 1500 BR BKN006 OVC012 05/05 Q1016 REDZ TEMPO -DZ RMK AMB
LHKE 210645Z 09002KT 1200 -DZ BR BKN006 OVC012 05/05 Q1016 NOSIG RMK AMB
LHKE 210615Z 08002KT 1200 -RADZ BR BKN007 OVC012 04/04 Q1015 NOSIG RMK AMB
TAF LHKE 211115Z 2112/2121 VRB03KT 5000 BR SCT010 BKN020 OVC033 
     TEMPO 2112/2121 2000 -RA -RADZ BR BKN005 OVC015